Sakura — JG5711 — position and weather

sailwx.info

Track history (hours):
 
Tides and Currents Weather Stations Pressure Air Temp Water Temp Dewpoint Dewpoint Depression Visibility Wind Speed Wind Dir Waves Ship Positions

Sakura

Last reported at 2015-May-03 12:33 UTC. Time now 2015-May-03 12:52 UTC.
Position N 35°27' E 139°39'.

Length 32 m; draft 3.6 m.

Type: Tug. MMSI: 431101178.

Date/timePositionNaut miles runAvg speedWind from/ knotsBaromVisibWave heightAir tempDewpointWater temp
2015-May-03 12:33N 35°27' E 139°39'0 0.0
2015-May-03 11:33N 35°27' E 139°39'0 0.0
2015-May-03 10:33N 35°27' E 139°39'2 1.6
2015-May-03 09:33N 35°27' E 139°40'1 1.2
2015-May-03 08:33N 35°26' E 139°42'4 4.4
2015-May-03 07:33N 35°29' E 139°46'0 0.2
2015-May-03 06:33N 35°30' E 139°46'0 0.0
2015-May-03 05:33N 35°30' E 139°46'0 0.0
2015-May-03 04:33N 35°30' E 139°46'1 0.6
2015-May-03 03:33N 35°29' E 139°45'2 2.2
2015-May-03 02:33N 35°27' E 139°44'4 4.2
2015-May-03 01:33N 35°27' E 139°39'0 0.0
2015-May-03 00:33N 35°27' E 139°39'0 0.0
2015-May-02 23:33N 35°27' E 139°39'1 0.1
2015-May-02 07:23N 35°27' E 139°40'1 1.6
2015-May-02 06:34N 35°27' E 139°41'0 0.5
2015-May-02 05:34N 35°27' E 139°42'1 1.1
2015-May-02 04:34N 35°26' E 139°41'1 1.2
2015-May-02 03:34N 35°28' E 139°40'0 0.0
2015-May-02 02:34N 35°28' E 139°40'1 1.0
2015-May-02 01:34N 35°27' E 139°39'1 1.1
2015-May-02 00:34N 35°27' E 139°41'2 1.8
2015-May-01 23:34N 35°27' E 139°39'0 0.0
2015-May-01 22:34N 35°27' E 139°39'0 0.0
2015-May-01 00:09N 35°27' E 139°39'2 2.6
2015-Apr-30 23:33N 35°27' E 139°40'3 2.9
2015-Apr-30 22:33N 35°26' E 139°44'2 1.7
2015-Apr-30 21:33N 35°26' E 139°42'1 0.8
2015-Apr-30 20:33N 35°26' E 139°41'1 0.7
2015-Apr-30 19:33N 35°26' E 139°42'1 0.7
2015-Apr-30 18:34N 35°26' E 139°41'1 1.5
2015-Apr-30 17:33N 35°28' E 139°41'1 0.5
2015-Apr-30 16:34N 35°27' E 139°40'2 1.6
2015-Apr-30 15:33N 35°26' E 139°42'0 0.1
2015-Apr-30 14:33N 35°26' E 139°42'0 0.0
2015-Apr-30 13:33N 35°26' E 139°42'1 0.5
2015-Apr-30 12:33N 35°27' E 139°41'1 1.2
2015-Apr-30 11:33N 35°28' E 139°41'1 1.1
2015-Apr-30 10:33N 35°26' E 139°40'2 1.6
2015-Apr-30 09:33N 35°27' E 139°39'0 0.0
2015-Apr-30 08:33N 35°27' E 139°39'2 2.5
2015-Apr-30 07:33N 35°28' E 139°42'0 0.3
2015-Apr-30 06:33N 35°28' E 139°42'2 2.2
2015-Apr-30 05:34N 35°26' E 139°41'0 0.4
2015-Apr-30 04:33N 35°26' E 139°42'0 0.0
2015-Apr-30 03:34N 35°26' E 139°42'0 0.3
2015-Apr-30 02:33N 35°26' E 139°42'6 6.0
2015-Apr-30 01:33N 35°31' E 139°46'1 1.2
2015-Apr-30 00:33N 35°30' E 139°45'1 0.8
2015-Apr-29 23:33N 35°30' E 139°46'5 4.9
2015-Apr-29 22:33N 35°28' E 139°41'2 2.2
2015-Apr-29 21:33N 35°26' E 139°42'3 3.0
2015-Apr-29 20:33N 35°27' E 139°39'0 0.0
2015-Apr-28 07:10N 35°27' E 139°39'0 0.0
2015-Apr-28 06:34N 35°27' E 139°39'0 0.0
2015-Apr-28 05:33N 35°27' E 139°39'0 0.0
2015-Apr-28 04:33N 35°27' E 139°39'0 0.0
2015-Apr-28 03:33N 35°27' E 139°39'0 0.0
2015-Apr-28 02:33N 35°27' E 139°39'3 2.7
2015-Apr-28 01:34N 35°27' E 139°42'1 0.8
2015-Apr-28 00:33N 35°26' E 139°42'1 0.8
2015-Apr-27 23:33N 35°26' E 139°41'2 2.0
2015-Apr-27 22:34N 35°27' E 139°39'0 0.0
2015-Apr-27 09:34N 35°27' E 139°39'2 2.4
2015-Apr-27 08:34N 35°28' E 139°42'3 2.7
2015-Apr-27 07:34N 35°26' E 139°44'3 3.5
2015-Apr-27 06:33N 35°28' E 139°40'0 0.0
2015-Apr-27 05:34N 35°28' E 139°40'2 1.7
2015-Apr-27 04:34N 35°26' E 139°42'3 3.3
2015-Apr-27 03:34N 35°29' E 139°39'1 1.2
2015-Apr-27 02:34N 35°27' E 139°39'0 0.0
2015-Apr-27 01:33N 35°27' E 139°39'2 1.6
2015-Apr-27 00:34N 35°27' E 139°41'1 1.5
2015-Apr-26 23:34N 35°28' E 139°39'0 0.3
2015-Apr-26 22:34N 35°27' E 139°39'0 0.0
2015-Apr-25 23:30N 35°27' E 139°39'7 7.2
2015-Apr-25 22:33N 35°31' E 139°46'3 3.5
2015-Apr-25 21:33N 35°29' E 139°42'3 2.9
2015-Apr-25 20:33N 35°27' E 139°39'0 0.0
2015-Apr-25 19:33N 35°27' E 139°39'0 0.0
2015-Apr-25 18:33N 35°27' E 139°39'0 0.0
2015-Apr-25 17:33N 35°27' E 139°39'0 0.0
2015-Apr-25 16:33N 35°27' E 139°39'1 1.3
2015-Apr-25 15:33N 35°28' E 139°39'1 1.4
2015-Apr-25 14:33N 35°28' E 139°41'0 0.0
2015-Apr-25 13:33N 35°28' E 139°41'1 1.1
2015-Apr-25 12:33N 35°26' E 139°40'1 1.1
2015-Apr-25 11:33N 35°28' E 139°41'0 0.0
2015-Apr-25 10:33N 35°28' E 139°41'0 0.0
2015-Apr-25 09:33N 35°28' E 139°41'1 1.0
2015-Apr-25 08:33N 35°27' E 139°41'0 0.3
2015-Apr-25 07:33N 35°27' E 139°41'1 0.6
2015-Apr-25 06:33N 35°26' E 139°41'2 2.2
2015-Apr-25 05:33N 35°27' E 139°39'0 0.0
2015-Apr-25 04:33N 35°27' E 139°39'0 0.0
2015-Apr-25 03:33N 35°27' E 139°39'0 0.0
2015-Apr-25 02:33N 35°27' E 139°39'0 0.0
2015-Apr-25 01:33N 35°27' E 139°39'0 0.0
2015-Apr-25 00:33N 35°27' E 139°39'0 0.0
2015-Apr-24 23:33N 35°27' E 139°39'0 0.0
2015-Apr-24 22:33N 35°27' E 139°39'0 0.0
2015-Apr-24 21:33N 35°27' E 139°39'0 0.0
2015-Apr-24 20:33N 35°27' E 139°39'6 0.5
2015-Apr-24 08:33N 35°31' E 139°45'0 0.1
2015-Apr-24 07:34N 35°31' E 139°45'6 6.2
2015-Apr-24 06:34N 35°27' E 139°39'0 0.0
2015-Apr-24 05:33N 35°27' E 139°39'0 0.0
2015-Apr-24 04:34N 35°27' E 139°39'1 0.7
2015-Apr-24 03:33N 35°27' E 139°39'0 0.0
2015-Apr-24 02:33N 35°27' E 139°39'1 0.9
2015-Apr-24 01:34N 35°27' E 139°40'1 1.4
2015-Apr-24 00:34N 35°27' E 139°42'4 4.2
2015-Apr-23 23:34N 35°30' E 139°45'0 0.4
2015-Apr-23 22:34N 35°30' E 139°46'3 3.0
2015-Apr-23 21:33N 35°29' E 139°42'4 3.6
2015-Apr-23 20:34N 35°27' E 139°39'  
Track history (hours):
 
Tides and Currents Weather Stations Pressure Air Temp Water Temp Dewpoint Dewpoint Depression Visibility Wind Speed Wind Dir Waves Ship Positions

Sakura

Last reported at 2015-May-03 12:33 UTC. Time now 2015-May-03 12:52 UTC.
Position N 35°27' E 139°39'.

Length 32 m; draft 3.6 m.

Type: Tug. MMSI: 431101178.

Date/timePositionNaut miles runAvg speedWind from/ knotsBaromVisibWave heightAir tempDewpointWater temp
2015-May-03 12:33N 35°27' E 139°39'0 0.0
2015-May-03 11:33N 35°27' E 139°39'0 0.0
2015-May-03 10:33N 35°27' E 139°39'2 1.6
2015-May-03 09:33N 35°27' E 139°40'1 1.2
2015-May-03 08:33N 35°26' E 139°42'4 4.4
2015-May-03 07:33N 35°29' E 139°46'0 0.2
2015-May-03 06:33N 35°30' E 139°46'0 0.0
2015-May-03 05:33N 35°30' E 139°46'0 0.0
2015-May-03 04:33N 35°30' E 139°46'1 0.6
2015-May-03 03:33N 35°29' E 139°45'2 2.2
2015-May-03 02:33N 35°27' E 139°44'4 4.2
2015-May-03 01:33N 35°27' E 139°39'0 0.0
2015-May-03 00:33N 35°27' E 139°39'0 0.0
2015-May-02 23:33N 35°27' E 139°39'1 0.1
2015-May-02 07:23N 35°27' E 139°40'1 1.6
2015-May-02 06:34N 35°27' E 139°41'0 0.5
2015-May-02 05:34N 35°27' E 139°42'1 1.1
2015-May-02 04:34N 35°26' E 139°41'1 1.2
2015-May-02 03:34N 35°28' E 139°40'0 0.0
2015-May-02 02:34N 35°28' E 139°40'1 1.0
2015-May-02 01:34N 35°27' E 139°39'1 1.1
2015-May-02 00:34N 35°27' E 139°41'2 1.8
2015-May-01 23:34N 35°27' E 139°39'0 0.0
2015-May-01 22:34N 35°27' E 139°39'0 0.0
2015-May-01 00:09N 35°27' E 139°39'2 2.6
2015-Apr-30 23:33N 35°27' E 139°40'3 2.9
2015-Apr-30 22:33N 35°26' E 139°44'2 1.7
2015-Apr-30 21:33N 35°26' E 139°42'1 0.8
2015-Apr-30 20:33N 35°26' E 139°41'1 0.7
2015-Apr-30 19:33N 35°26' E 139°42'1 0.7
2015-Apr-30 18:34N 35°26' E 139°41'1 1.5
2015-Apr-30 17:33N 35°28' E 139°41'1 0.5
2015-Apr-30 16:34N 35°27' E 139°40'2 1.6
2015-Apr-30 15:33N 35°26' E 139°42'0 0.1
2015-Apr-30 14:33N 35°26' E 139°42'0 0.0
2015-Apr-30 13:33N 35°26' E 139°42'1 0.5
2015-Apr-30 12:33N 35°27' E 139°41'1 1.2
2015-Apr-30 11:33N 35°28' E 139°41'1 1.1
2015-Apr-30 10:33N 35°26' E 139°40'2 1.6
2015-Apr-30 09:33N 35°27' E 139°39'0 0.0
2015-Apr-30 08:33N 35°27' E 139°39'2 2.5
2015-Apr-30 07:33N 35°28' E 139°42'0 0.3
2015-Apr-30 06:33N 35°28' E 139°42'2 2.2
2015-Apr-30 05:34N 35°26' E 139°41'0 0.4
2015-Apr-30 04:33N 35°26' E 139°42'0 0.0
2015-Apr-30 03:34N 35°26' E 139°42'0 0.3
2015-Apr-30 02:33N 35°26' E 139°42'6 6.0
2015-Apr-30 01:33N 35°31' E 139°46'1 1.2
2015-Apr-30 00:33N 35°30' E 139°45'1 0.8
2015-Apr-29 23:33N 35°30' E 139°46'5 4.9
2015-Apr-29 22:33N 35°28' E 139°41'2 2.2
2015-Apr-29 21:33N 35°26' E 139°42'3 3.0
2015-Apr-29 20:33N 35°27' E 139°39'0 0.0
2015-Apr-28 07:10N 35°27' E 139°39'0 0.0
2015-Apr-28 06:34N 35°27' E 139°39'0 0.0
2015-Apr-28 05:33N 35°27' E 139°39'0 0.0
2015-Apr-28 04:33N 35°27' E 139°39'0 0.0
2015-Apr-28 03:33N 35°27' E 139°39'0 0.0
2015-Apr-28 02:33N 35°27' E 139°39'3 2.7
2015-Apr-28 01:34N 35°27' E 139°42'1 0.8
2015-Apr-28 00:33N 35°26' E 139°42'1 0.8
2015-Apr-27 23:33N 35°26' E 139°41'2 2.0
2015-Apr-27 22:34N 35°27' E 139°39'0 0.0
2015-Apr-27 09:34N 35°27' E 139°39'2 2.4
2015-Apr-27 08:34N 35°28' E 139°42'3 2.7
2015-Apr-27 07:34N 35°26' E 139°44'3 3.5
2015-Apr-27 06:33N 35°28' E 139°40'0 0.0
2015-Apr-27 05:34N 35°28' E 139°40'2 1.7
2015-Apr-27 04:34N 35°26' E 139°42'3 3.3
2015-Apr-27 03:34N 35°29' E 139°39'1 1.2
2015-Apr-27 02:34N 35°27' E 139°39'0 0.0
2015-Apr-27 01:33N 35°27' E 139°39'2 1.6
2015-Apr-27 00:34N 35°27' E 139°41'1 1.5
2015-Apr-26 23:34N 35°28' E 139°39'0 0.3
2015-Apr-26 22:34N 35°27' E 139°39'0 0.0
2015-Apr-25 23:30N 35°27' E 139°39'7 7.2
2015-Apr-25 22:33N 35°31' E 139°46'3 3.5
2015-Apr-25 21:33N 35°29' E 139°42'3 2.9
2015-Apr-25 20:33N 35°27' E 139°39'0 0.0
2015-Apr-25 19:33N 35°27' E 139°39'0 0.0
2015-Apr-25 18:33N 35°27' E 139°39'0 0.0
2015-Apr-25 17:33N 35°27' E 139°39'0 0.0
2015-Apr-25 16:33N 35°27' E 139°39'1 1.3
2015-Apr-25 15:33N 35°28' E 139°39'1 1.4
2015-Apr-25 14:33N 35°28' E 139°41'0 0.0
2015-Apr-25 13:33N 35°28' E 139°41'1 1.1
2015-Apr-25 12:33N 35°26' E 139°40'1 1.1
2015-Apr-25 11:33N 35°28' E 139°41'0 0.0
2015-Apr-25 10:33N 35°28' E 139°41'0 0.0
2015-Apr-25 09:33N 35°28' E 139°41'1 1.0
2015-Apr-25 08:33N 35°27' E 139°41'0 0.3
2015-Apr-25 07:33N 35°27' E 139°41'1 0.6
2015-Apr-25 06:33N 35°26' E 139°41'2 2.2
2015-Apr-25 05:33N 35°27' E 139°39'0 0.0
2015-Apr-25 04:33N 35°27' E 139°39'0 0.0
2015-Apr-25 03:33N 35°27' E 139°39'0 0.0
2015-Apr-25 02:33N 35°27' E 139°39'0 0.0
2015-Apr-25 01:33N 35°27' E 139°39'0 0.0
2015-Apr-25 00:33N 35°27' E 139°39'0 0.0
2015-Apr-24 23:33N 35°27' E 139°39'0 0.0
2015-Apr-24 22:33N 35°27' E 139°39'0 0.0
2015-Apr-24 21:33N 35°27' E 139°39'0 0.0
2015-Apr-24 20:33N 35°27' E 139°39'6 0.5
2015-Apr-24 08:33N 35°31' E 139°45'0 0.1
2015-Apr-24 07:34N 35°31' E 139°45'6 6.2
2015-Apr-24 06:34N 35°27' E 139°39'0 0.0
2015-Apr-24 05:33N 35°27' E 139°39'0 0.0
2015-Apr-24 04:34N 35°27' E 139°39'1 0.7
2015-Apr-24 03:33N 35°27' E 139°39'0 0.0
2015-Apr-24 02:33N 35°27' E 139°39'1 0.9
2015-Apr-24 01:34N 35°27' E 139°40'1 1.4
2015-Apr-24 00:34N 35°27' E 139°42'4 4.2
2015-Apr-23 23:34N 35°30' E 139°45'0 0.4
2015-Apr-23 22:34N 35°30' E 139°46'3 3.0
2015-Apr-23 21:33N 35°29' E 139°42'4 3.6
2015-Apr-23 20:34N 35°27' E 139°39'  

Dump ship's entire track history